createdAt,value
2023-04-18T00:00:23.569Z,96451.41
2023-04-18T00:02:57.370Z,96446.38
2023-04-18T00:05:28.527Z,96463.25
2023-04-18T00:07:59.477Z,96455.44
2023-04-18T00:10:30.141Z,96460.78
2023-04-18T00:13:01.441Z,96464.47
2023-04-18T00:15:32.646Z,96461.78
2023-04-18T00:18:06.762Z,96457.50
2023-04-18T00:20:39.381Z,96466.47
2023-04-18T00:23:14.280Z,96464.84
2023-04-18T00:25:45.113Z,96466.88
2023-04-18T00:28:15.920Z,96463.56
2023-04-18T00:30:46.653Z,96462.28
2023-04-18T00:33:20.394Z,96465.34
2023-04-18T00:35:51.473Z,96458.38
2023-04-18T00:38:22.162Z,96448.75
2023-04-18T00:40:53.280Z,96450.38
2023-04-18T00:43:27.137Z,96451.22
2023-04-18T00:45:59.120Z,96430.25
2023-04-18T00:48:33.402Z,96445.06
2023-04-18T00:51:04.355Z,96448.75
2023-04-18T00:53:35.490Z,96443.41
2023-04-18T00:56:07.871Z,96439.13
2023-04-18T00:58:40.956Z,96440.94
2023-04-18T01:01:13.782Z,96430.25
2023-04-18T01:03:47.489Z,96433.91
2023-04-18T01:06:19.188Z,96441.16
2023-04-18T01:08:50.071Z,96432.53
2023-04-18T01:11:21.837Z,96439.69
2023-04-18T01:14:02.716Z,96436.41
2023-04-18T01:16:37.316Z,96440.25
2023-04-18T01:19:11.717Z,96443.13
2023-04-18T01:21:45.851Z,96444.94
2023-04-18T01:24:22.006Z,96432.59
2023-04-18T01:26:52.785Z,96433.06
2023-04-18T01:29:23.677Z,96442.88
2023-04-18T01:31:54.505Z,96427.28
2023-04-18T01:34:25.278Z,96428.47
2023-04-18T01:36:56.108Z,96434.81
2023-04-18T01:39:29.574Z,96428.03
2023-04-18T01:42:01.720Z,96435.38
2023-04-18T01:44:32.389Z,96435.78
2023-04-18T01:47:03.180Z,96434.94
2023-04-18T01:49:36.904Z,96430.81
2023-04-18T01:52:07.638Z,96425.88
2023-04-18T01:54:41.123Z,96431.38
2023-04-18T01:57:11.994Z,96432.34
2023-04-18T01:59:42.980Z,96426.59
2023-04-18T02:02:13.974Z,96435.59
2023-04-18T02:04:44.921Z,96436.81
2023-04-18T02:07:15.679Z,96437.16
2023-04-18T02:09:49.080Z,96439.16
2023-04-18T02:12:19.863Z,96439.56
2023-04-18T02:14:54.925Z,96443.97
2023-04-18T02:17:26.334Z,96448.47
2023-04-18T02:19:58.952Z,96442.69
2023-04-18T02:22:29.864Z,96440.63
2023-04-18T02:25:03.346Z,96442.63
2023-04-18T02:27:37.925Z,96446.66
2023-04-18T02:30:10.311Z,96456.84
2023-04-18T02:32:41.202Z,96448.59
2023-04-18T02:35:12.981Z,96459.59
2023-04-18T02:37:43.994Z,96455.03
2023-04-18T02:40:19.358Z,96466.00
2023-04-18T02:42:51.414Z,96466.59
2023-04-18T02:45:22.584Z,96466.09
2023-04-18T02:47:56.072Z,96463.00
2023-04-18T02:50:29.382Z,96462.56
2023-04-18T02:53:01.362Z,96468.22
2023-04-18T02:55:46.256Z,96474.72
2023-04-18T02:58:17.160Z,96473.44
2023-04-18T03:00:58.111Z,96476.63
2023-04-18T03:03:31.856Z,96476.16
2023-04-18T03:06:20.599Z,96479.38
2023-04-18T03:08:52.158Z,96473.59
2023-04-18T03:11:25.967Z,96482.56
2023-04-18T03:13:59.199Z,96487.03
2023-04-18T03:16:38.263Z,96496.03
2023-04-18T03:19:11.259Z,96496.03
2023-04-18T03:21:42.221Z,96499.69
2023-04-18T03:24:15.078Z,96505.34
2023-04-18T03:26:51.736Z,96516.81
2023-04-18T03:29:25.887Z,96513.31
2023-04-18T03:31:56.805Z,96516.34
2023-04-18T03:34:27.730Z,96513.38
2023-04-18T03:36:59.053Z,96521.53
2023-04-18T03:39:32.718Z,96524.38
2023-04-18T03:42:06.577Z,96526.38
2023-04-18T03:44:38.542Z,96535.16
2023-04-18T03:47:09.351Z,96528.22
2023-04-18T03:49:44.010Z,96530.03
2023-04-18T03:52:16.401Z,96532.84
2023-04-18T03:54:47.243Z,96546.28
2023-04-18T03:57:22.528Z,96536.53
2023-04-18T03:59:53.385Z,96547.13
2023-04-18T04:02:25.623Z,96541.19
2023-04-18T04:04:56.602Z,96541.00
2023-04-18T04:07:27.595Z,96543.00
2023-04-18T04:09:58.685Z,96539.34
2023-04-18T04:12:32.318Z,96544.66
2023-04-18T04:15:03.569Z,96545.66
2023-04-18T04:17:36.374Z,96544.81
2023-04-18T04:20:07.884Z,96551.97
2023-04-18T04:22:39.884Z,96551.97
2023-04-18T04:25:14.123Z,96547.47
2023-04-18T04:27:54.044Z,96541.00
2023-04-18T04:30:26.800Z,96544.94
2023-04-18T04:32:57.763Z,96547.25
2023-04-18T04:35:28.731Z,96555.97
2023-04-18T04:38:01.952Z,96556.72
2023-04-18T04:40:41.680Z,96553.84
2023-04-18T04:43:20.856Z,96553.94
2023-04-18T04:45:53.435Z,96554.84
2023-04-18T04:48:27.661Z,96559.47
2023-04-18T04:50:59.992Z,96555.44
2023-04-18T04:53:33.409Z,96559.00
2023-04-18T04:56:07.509Z,96569.19
2023-04-18T04:58:41.027Z,96566.50
2023-04-18T05:01:13.316Z,96568.63
2023-04-18T05:03:44.922Z,96569.72
2023-04-18T05:06:21.092Z,96563.47
2023-04-18T05:08:53.310Z,96561.84
2023-04-18T05:11:23.961Z,96569.41
2023-04-18T05:13:57.354Z,96574.19
2023-04-18T05:16:28.088Z,96573.22
2023-04-18T05:18:58.931Z,96576.53
2023-04-18T05:21:29.818Z,96571.34
2023-04-18T05:24:00.590Z,96578.44
2023-04-18T05:26:31.320Z,96576.84
2023-04-18T05:29:04.668Z,96578.28
2023-04-18T05:31:35.739Z,96585.25
2023-04-18T05:34:07.175Z,96579.56
2023-04-18T05:36:37.985Z,96578.19
2023-04-18T05:39:08.645Z,96575.91
2023-04-18T05:41:39.600Z,96578.59
2023-04-18T05:44:12.933Z,96571.31
2023-04-18T05:46:43.832Z,96573.88
2023-04-18T05:49:15.071Z,96576.28
2023-04-18T05:51:45.863Z,96573.88
2023-04-18T05:54:16.624Z,96580.69
2023-04-18T05:56:47.656Z,96580.56
2023-04-18T05:59:21.021Z,96580.75
2023-04-18T06:01:52.525Z,96572.53
2023-04-18T06:04:23.771Z,96570.44
2023-04-18T06:06:54.668Z,96561.91
2023-04-18T06:09:25.369Z,96568.34
2023-04-18T06:11:58.064Z,96572.78
2023-04-18T06:14:31.615Z,96573.84
2023-04-18T06:17:02.630Z,96571.56
2023-04-18T06:19:35.869Z,96575.19
2023-04-18T06:22:06.857Z,96582.63
2023-04-18T06:24:37.828Z,96569.50
2023-04-18T06:27:17.570Z,96573.84
2023-04-18T06:29:57.599Z,96577.66
2023-04-18T06:32:28.449Z,96566.81
2023-04-18T06:34:59.424Z,96566.44
2023-04-18T06:37:30.412Z,96571.63
2023-04-18T06:40:01.079Z,96576.19
2023-04-18T06:42:32.566Z,96570.47
2023-04-18T06:45:06.881Z,96574.41
2023-04-18T06:47:39.766Z,96575.38
2023-04-18T06:50:12.172Z,96571.97
2023-04-18T06:52:45.857Z,96570.41
2023-04-18T06:55:17.396Z,96575.88
2023-04-18T06:57:48.255Z,96578.66
2023-04-18T07:00:22.317Z,96579.44
2023-04-18T07:02:53.410Z,96578.13
2023-04-18T07:05:24.548Z,96585.19
2023-04-18T07:07:55.297Z,96583.50
2023-04-18T07:10:26.188Z,96578.63
2023-04-18T07:12:56.975Z,96586.22
2023-04-18T07:15:30.496Z,96574.53
2023-04-18T07:18:01.442Z,96584.25
2023-04-18T07:20:32.391Z,96588.13
2023-04-18T07:23:03.265Z,96579.19
2023-04-18T07:25:34.826Z,96582.84
2023-04-18T07:28:05.772Z,96589.84
2023-04-18T07:30:39.173Z,96583.78
2023-04-18T07:33:09.976Z,96586.50
2023-04-18T07:35:41.119Z,96591.69
2023-04-18T07:38:12.099Z,96588.22
2023-04-18T07:40:42.821Z,96589.31
2023-04-18T07:43:13.829Z,96595.84
2023-04-18T07:45:47.194Z,96595.97
2023-04-18T07:48:18.033Z,96596.75
2023-04-18T07:50:48.881Z,96587.44
2023-04-18T07:53:19.786Z,96587.75
2023-04-18T07:55:50.510Z,96588.00
2023-04-18T07:58:21.389Z,96589.25
2023-04-18T08:00:54.683Z,96601.28
2023-04-18T08:03:25.677Z,96596.44
2023-04-18T08:05:56.986Z,96593.97
2023-04-18T08:08:27.877Z,96595.59
2023-04-18T08:10:58.594Z,96600.03
2023-04-18T08:13:29.438Z,96594.47
2023-04-18T08:16:03.419Z,96596.97
2023-04-18T08:18:34.328Z,96597.53
2023-04-18T08:21:05.328Z,96598.34
2023-04-18T08:23:36.127Z,96601.00
2023-04-18T08:26:06.777Z,96604.97
2023-04-18T08:28:37.633Z,96605.50
2023-04-18T08:31:15.442Z,96625.00
2023-04-18T08:33:46.557Z,96612.09
2023-04-18T08:36:17.623Z,96621.28
2023-04-18T08:38:48.290Z,96615.06
2023-04-18T08:41:23.994Z,96614.53
2023-04-18T08:43:56.973Z,96619.59
2023-04-18T08:46:32.642Z,96619.38
2023-04-18T08:49:05.050Z,96615.97
2023-04-18T08:51:36.043Z,96613.16
2023-04-18T08:54:09.842Z,96615.03
2023-04-18T08:56:41.301Z,96615.19
2023-04-18T08:59:12.285Z,96611.66
2023-04-18T09:02:01.876Z,96612.59
2023-04-18T09:04:38.293Z,96610.13
2023-04-18T09:07:11.226Z,96615.06
2023-04-18T09:09:47.205Z,96602.19
2023-04-18T09:12:19.846Z,96616.59
2023-04-18T09:14:50.739Z,96622.19
2023-04-18T09:17:41.980Z,96615.75
2023-04-18T09:20:16.004Z,96615.53
2023-04-18T09:22:49.263Z,96628.38
2023-04-18T09:25:30.407Z,96626.41
2023-04-18T09:28:02.201Z,96620.19
2023-04-18T09:30:35.303Z,96619.00
2023-04-18T09:33:11.582Z,96618.56
2023-04-18T09:35:42.956Z,96622.38
2023-04-18T09:38:13.714Z,96622.59
2023-04-18T09:40:44.430Z,96632.69
2023-04-18T09:43:22.514Z,96621.19
2023-04-18T09:45:54.900Z,96626.09
2023-04-18T09:48:28.327Z,96623.94
2023-04-18T09:51:00.091Z,96617.63
2023-04-18T09:53:33.283Z,96619.94
2023-04-18T09:56:05.376Z,96605.91
2023-04-18T09:58:40.656Z,96606.97
2023-04-18T10:01:13.559Z,96599.13
2023-04-18T10:03:51.316Z,96598.91
2023-04-18T10:06:22.198Z,96602.69
2023-04-18T10:08:55.752Z,96601.63
2023-04-18T10:11:27.271Z,96596.31
2023-04-18T10:14:01.724Z,96590.47
2023-04-18T10:16:34.834Z,96588.94
2023-04-18T10:19:30.464Z,96573.38
2023-04-18T10:22:02.701Z,96601.34
2023-04-18T10:24:57.209Z,96594.91
2023-04-18T10:27:58.446Z,96600.41
2023-04-18T10:30:54.648Z,96597.25
2023-04-18T10:33:31.968Z,96606.13
2023-04-18T10:36:21.068Z,96606.78
2023-04-18T10:38:53.348Z,96603.25
2023-04-18T10:41:26.546Z,96604.63
2023-04-18T10:44:18.663Z,96611.84
2023-04-18T10:47:24.111Z,96622.50
2023-04-18T10:50:15.981Z,96636.44
2023-04-18T10:52:49.403Z,96638.38
2023-04-18T10:55:23.690Z,96646.38
2023-04-18T10:57:56.801Z,96651.94
2023-04-18T11:00:27.843Z,96651.69
2023-04-18T11:03:00.643Z,96646.88
2023-04-18T11:05:32.283Z,96654.44
2023-04-18T11:08:05.632Z,96652.84
2023-04-18T11:10:36.208Z,96645.94
2023-04-18T11:13:08.927Z,96643.97
2023-04-18T11:15:40.220Z,96639.44
2023-04-18T11:18:12.758Z,96637.03
2023-04-18T11:20:50.765Z,96647.78
2023-04-18T11:23:25.994Z,96652.59
2023-04-18T11:25:58.905Z,96654.44
2023-04-18T11:28:30.297Z,96644.56
2023-04-18T11:31:03.362Z,96661.84
2023-04-18T11:33:34.310Z,96647.78
2023-04-18T11:36:05.980Z,96644.88
2023-04-18T11:38:40.412Z,96648.16
2023-04-18T11:41:16.802Z,96656.78
2023-04-18T11:43:48.623Z,96651.03
2023-04-18T11:46:19.383Z,96646.09
2023-04-18T11:48:50.816Z,96648.38
2023-04-18T11:51:38.924Z,96642.41
2023-04-18T11:54:42.187Z,96644.91
2023-04-18T11:57:23.960Z,96646.38
2023-04-18T11:59:56.433Z,96644.13
2023-04-18T12:02:29.232Z,96642.28
2023-04-18T12:05:01.855Z,96637.16
2023-04-18T12:07:36.665Z,96641.91
2023-04-18T12:10:12.023Z,96645.63
2023-04-18T12:12:51.625Z,96641.09
2023-04-18T12:15:24.376Z,96643.56
2023-04-18T12:17:55.113Z,96634.47
2023-04-18T12:20:27.222Z,96636.56
2023-04-18T12:22:58.078Z,96632.25
2023-04-18T12:25:31.963Z,96623.19
2023-04-18T12:28:03.925Z,96627.06
2023-04-18T12:30:37.810Z,96627.47
2023-04-18T12:33:09.519Z,96620.88
2023-04-18T12:35:40.143Z,96633.25
2023-04-18T12:38:10.888Z,96633.84
2023-04-18T12:40:44.772Z,96629.34
2023-04-18T12:43:15.523Z,96640.66
2023-04-18T12:45:46.431Z,96645.16
2023-04-18T12:48:17.235Z,96646.00
2023-04-18T12:50:48.171Z,96646.22
2023-04-18T12:53:18.881Z,96646.00
2023-04-18T12:55:52.323Z,96648.69
2023-04-18T12:58:23.245Z,96654.88
2023-04-18T13:00:54.139Z,96655.06
2023-04-18T13:03:25.334Z,96650.75
2023-04-18T13:05:56.831Z,96653.66
2023-04-18T13:08:27.607Z,96656.53
2023-04-18T13:11:01.663Z,96653.22
2023-04-18T13:13:34.392Z,96653.66
2023-04-18T13:16:06.659Z,96642.78
2023-04-18T13:18:37.394Z,96652.06
2023-04-18T13:21:08.810Z,96648.34
2023-04-18T13:23:39.621Z,96649.81
2023-04-18T13:26:13.114Z,96654.53
2023-04-18T13:28:43.827Z,96650.22
2023-04-18T13:31:16.842Z,96652.28
2023-04-18T13:33:47.781Z,96656.41
2023-04-18T13:36:18.562Z,96656.00
2023-04-18T13:38:49.825Z,96655.81
2023-04-18T13:41:24.805Z,96658.28
2023-04-18T13:43:55.551Z,96651.91
2023-04-18T13:46:27.759Z,96660.38
2023-04-18T13:48:58.905Z,96662.63
2023-04-18T13:51:30.053Z,96655.03
2023-04-18T13:54:01.464Z,96654.19
2023-04-18T13:56:35.152Z,96657.72
2023-04-18T13:59:05.988Z,96650.69
2023-04-18T14:01:36.831Z,96652.16
2023-04-18T14:04:07.623Z,96652.56
2023-04-18T14:06:38.671Z,96649.25
2023-04-18T14:09:09.899Z,96638.78
2023-04-18T14:11:43.800Z,96639.78
2023-04-18T14:14:15.057Z,96633.66
2023-04-18T14:16:46.410Z,96633.44
2023-04-18T14:19:18.275Z,96637.13
2023-04-18T14:21:49.825Z,96635.28
2023-04-18T14:24:20.664Z,96631.97
2023-04-18T14:26:54.051Z,96631.16
2023-04-18T14:29:24.675Z,96638.34
2023-04-18T14:31:55.430Z,96636.94
2023-04-18T14:34:26.237Z,96633.84
2023-04-18T14:36:57.019Z,96631.97
2023-04-18T14:39:28.046Z,96631.97
2023-04-18T14:42:01.978Z,96629.09
2023-04-18T14:44:33.393Z,96630.78
2023-04-18T14:47:04.244Z,96634.44
2023-04-18T14:49:35.081Z,96629.31
2023-04-18T14:52:05.970Z,96634.66
2023-04-18T14:54:36.840Z,96632.81
2023-04-18T14:57:10.561Z,96624.78
2023-04-18T14:59:41.422Z,96620.03
2023-04-18T15:02:12.283Z,96625.81
2023-04-18T15:04:43.269Z,96629.53
2023-04-18T15:07:15.502Z,96633.63
2023-04-18T15:09:46.259Z,96636.28
2023-04-18T15:12:19.576Z,96641.00
2023-04-18T15:14:50.402Z,96632.38
2023-04-18T15:17:21.264Z,96636.09
2023-04-18T15:19:52.056Z,96642.44
2023-04-18T15:22:23.194Z,96631.16
2023-04-18T15:24:54.087Z,96634.03
2023-04-18T15:27:27.464Z,96633.19
2023-04-18T15:29:58.375Z,96630.75
2023-04-18T15:32:29.423Z,96626.59
2023-04-18T15:35:00.185Z,96632.19
2023-04-18T15:37:30.814Z,96627.03
2023-04-18T15:40:02.217Z,96620.03
2023-04-18T15:42:37.189Z,96621.25
2023-04-18T15:45:09.278Z,96617.78
2023-04-18T15:47:40.892Z,96624.16
2023-04-18T15:50:12.708Z,96619.41
2023-04-18T15:52:44.133Z,96615.28
2023-04-18T15:55:15.715Z,96611.78
2023-04-18T15:57:49.069Z,96616.31
2023-04-18T16:00:21.152Z,96616.53
2023-04-18T16:02:52.395Z,96613.44
2023-04-18T16:05:23.648Z,96611.78
2023-04-18T16:07:56.492Z,96617.13
2023-04-18T16:10:27.364Z,96613.63
2023-04-18T16:13:02.577Z,96626.16
2023-04-18T16:15:35.829Z,96626.38
2023-04-18T16:18:06.596Z,96619.59
2023-04-18T16:20:37.395Z,96625.78
2023-04-18T16:23:08.190Z,96625.97
2023-04-18T16:25:39.007Z,96634.38
2023-04-18T16:28:12.405Z,96636.03
2023-04-18T16:30:44.163Z,96637.66
2023-04-18T16:33:15.007Z,96636.00
2023-04-18T16:35:46.015Z,96638.41
2023-04-18T16:38:16.872Z,96636.97
2023-04-18T16:40:47.661Z,96643.34
2023-04-18T16:43:23.322Z,96641.69
2023-04-18T16:45:53.796Z,96648.47
2023-04-18T16:48:24.368Z,96647.81
2023-04-18T16:50:55.335Z,96655.41
2023-04-18T16:53:26.673Z,96645.75
2023-04-18T16:55:57.514Z,96659.50
2023-04-18T16:58:30.808Z,96652.91
2023-04-18T17:01:01.612Z,96654.97
2023-04-18T17:03:32.607Z,96648.19
2023-04-18T17:06:04.043Z,96654.34
2023-04-18T17:08:34.835Z,96654.56
2023-04-18T17:11:05.642Z,96651.44
2023-04-18T17:13:39.062Z,96660.47
2023-04-18T17:16:11.150Z,96662.53
2023-04-18T17:18:42.070Z,96660.06
2023-04-18T17:21:13.589Z,96663.72
2023-04-18T17:23:44.486Z,96666.63
2023-04-18T17:26:15.274Z,96673.97
2023-04-18T17:28:48.590Z,96661.66
2023-04-18T17:31:19.564Z,96662.88
2023-04-18T17:33:51.175Z,96665.75
2023-04-18T17:36:22.120Z,96666.13
2023-04-18T17:38:52.972Z,96678.84
2023-04-18T17:41:24.345Z,96665.66
2023-04-18T17:43:58.466Z,96678.22
2023-04-18T17:46:29.461Z,96677.59
2023-04-18T17:49:00.301Z,96689.91
2023-04-18T17:51:31.440Z,96688.28
2023-04-18T17:54:02.200Z,96684.78
2023-04-18T17:56:33.493Z,96689.72
2023-04-18T17:59:07.756Z,96683.56
2023-04-18T18:01:38.763Z,96679.44
2023-04-18T18:04:09.685Z,96679.66
2023-04-18T18:06:41.047Z,96685.38
2023-04-18T18:09:13.128Z,96682.06
2023-04-18T18:11:44.019Z,96683.09
2023-04-18T18:14:17.404Z,96683.28
2023-04-18T18:16:48.259Z,96664.31
2023-04-18T18:19:19.233Z,96688.00
2023-04-18T18:21:50.269Z,96684.50
2023-04-18T18:24:21.668Z,96682.00
2023-04-18T18:26:52.469Z,96682.25
2023-04-18T18:29:25.901Z,96684.25
2023-04-18T18:31:56.683Z,96680.75
2023-04-18T18:34:27.956Z,96675.41
2023-04-18T18:36:58.786Z,96679.94
2023-04-18T18:39:29.626Z,96678.31
2023-04-18T18:42:01.472Z,96676.63
2023-04-18T18:44:36.214Z,96675.84
2023-04-18T18:47:07.051Z,96670.84
2023-04-18T18:49:40.239Z,96676.38
2023-04-18T18:52:11.382Z,96666.72
2023-04-18T18:54:42.198Z,96664.63
2023-04-18T18:57:12.996Z,96667.09
2023-04-18T18:59:46.446Z,96669.16
2023-04-18T19:02:17.526Z,96667.50
2023-04-18T19:04:48.666Z,96676.50
2023-04-18T19:07:19.573Z,96674.06
2023-04-18T19:09:50.544Z,96670.75
2023-04-18T19:12:21.353Z,96669.09
2023-04-18T19:14:55.234Z,96673.00
2023-04-18T19:17:26.170Z,96671.53
2023-04-18T19:19:58.261Z,96667.41
2023-04-18T19:22:28.912Z,96663.28
2023-04-18T19:25:01.074Z,96660.81
2023-04-18T19:27:35.638Z,96669.81
2023-04-18T19:30:10.907Z,96663.25
2023-04-18T19:32:42.747Z,96665.91
2023-04-18T19:35:13.607Z,96659.09
2023-04-18T19:37:44.878Z,96664.00
2023-04-18T19:40:16.025Z,96662.34
2023-04-18T19:42:46.961Z,96665.22
2023-04-18T19:45:20.375Z,96658.63
2023-04-18T19:47:51.353Z,96652.47
2023-04-18T19:50:22.363Z,96651.63
2023-04-18T19:52:53.266Z,96649.16
2023-04-18T19:55:24.388Z,96652.84
2023-04-18T19:57:57.974Z,96652.00
2023-04-18T20:00:31.508Z,96656.91
2023-04-18T20:03:02.450Z,96657.75
2023-04-18T20:05:33.301Z,96652.59
2023-04-18T20:08:04.832Z,96656.25
2023-04-18T20:10:36.988Z,96647.66
2023-04-18T20:13:08.445Z,96641.47
2023-04-18T20:15:42.595Z,96644.38
2023-04-18T20:18:13.398Z,96637.38
2023-04-18T20:20:44.184Z,96632.63
2023-04-18T20:23:15.286Z,96638.31
2023-04-18T20:25:46.118Z,96639.91
2023-04-18T20:28:17.034Z,96639.28
2023-04-18T20:30:50.370Z,96621.84
2023-04-18T20:33:21.336Z,96630.03
2023-04-18T20:35:53.945Z,96628.75
2023-04-18T20:38:26.288Z,96629.13
2023-04-18T20:40:58.363Z,96629.53
2023-04-18T20:43:29.036Z,96625.41
2023-04-18T20:46:02.435Z,96622.94
2023-04-18T20:48:33.213Z,96627.00
2023-04-18T20:51:03.934Z,96625.34
2023-04-18T20:53:34.846Z,96628.19
2023-04-18T20:56:06.016Z,96625.72
2023-04-18T20:58:36.878Z,96630.97
2023-04-18T21:01:10.267Z,96620.06
2023-04-18T21:03:41.162Z,96626.78
2023-04-18T21:06:12.149Z,96623.47
2023-04-18T21:08:42.840Z,96618.53
2023-04-18T21:11:13.508Z,96622.59
2023-04-18T21:13:44.313Z,96623.78
2023-04-18T21:16:17.763Z,96633.78
2023-04-18T21:18:48.547Z,96627.44
2023-04-18T21:21:19.309Z,96628.28
2023-04-18T21:23:50.108Z,96632.56
2023-04-18T21:26:21.391Z,96630.09
2023-04-18T21:28:59.523Z,96629.47
2023-04-18T21:31:34.262Z,96629.84
2023-04-18T21:34:06.404Z,96637.19
2023-04-18T21:36:37.332Z,96629.94
2023-04-18T21:39:08.650Z,96630.59
2023-04-18T21:41:39.394Z,96629.94
2023-04-18T21:44:10.850Z,96623.81
2023-04-18T21:46:44.410Z,96603.06
2023-04-18T21:49:15.574Z,96600.66
2023-04-18T21:51:46.338Z,96605.00
2023-04-18T21:54:17.234Z,96602.34
2023-04-18T21:56:48.016Z,96604.16
2023-04-18T21:59:18.974Z,96600.66
2023-04-18T22:04:38.426Z,96601.88
2023-04-18T22:07:09.188Z,96598.41
2023-04-18T22:09:40.135Z,96608.41
2023-04-18T22:12:11.827Z,96595.28
2023-04-18T22:14:42.809Z,96603.47
2023-04-18T22:17:16.166Z,96600.16
2023-04-18T22:19:49.413Z,96607.50
2023-04-18T22:22:20.348Z,96594.22
2023-04-18T22:24:51.163Z,96590.72
2023-04-18T22:27:21.898Z,96580.69
2023-04-18T22:29:53.997Z,96589.50
2023-04-18T22:32:27.497Z,96561.56
2023-04-18T22:34:58.330Z,96579.53
2023-04-18T22:37:29.044Z,96582.13
2023-04-18T22:39:59.840Z,96596.22
2023-04-18T22:42:31.621Z,96585.88
2023-04-18T22:45:03.025Z,96583.22
2023-04-18T22:47:37.840Z,96586.94
2023-04-18T22:50:10.258Z,96581.38
2023-04-18T22:52:41.018Z,96585.88
2023-04-18T22:55:14.447Z,96564.69
2023-04-18T22:57:45.451Z,96577.28
2023-04-18T23:00:17.607Z,96569.38
2023-04-18T23:02:52.042Z,96571.84
2023-04-18T23:05:23.226Z,96577.56
2023-04-18T23:07:53.955Z,96569.59
2023-04-18T23:10:25.192Z,96577.50
2023-04-18T23:12:55.929Z,96577.97
2023-04-18T23:15:27.381Z,96569.69
2023-04-18T23:18:00.898Z,96573.44
2023-04-18T23:20:31.915Z,96569.66
2023-04-18T23:23:02.659Z,96567.81
2023-04-18T23:25:36.052Z,96567.16
2023-04-18T23:28:07.238Z,96557.72
2023-04-18T23:30:39.324Z,96547.28
2023-04-18T23:33:12.675Z,96549.13
2023-04-18T23:35:43.440Z,96552.09
2023-04-18T23:38:14.500Z,96547.69
2023-04-18T23:40:45.265Z,96546.25
2023-04-18T23:43:15.986Z,96534.19
2023-04-18T23:45:46.999Z,96533.38
2023-04-18T23:48:20.432Z,96534.31
2023-04-18T23:50:53.234Z,96529.34
2023-04-18T23:53:25.209Z,96527.00
2023-04-18T23:55:56.812Z,96535.44
2023-04-18T23:58:27.486Z,96519.53
